Deer Meadows, Washington
Current Conditions -  °F | °C
As of 9:58 AM on Thursday 29 Jan 2015 (Local Time) from KSKA Reporting Station
Moderate Fog Moderate Fog  
Wind Chill: 24°   Ceiling: 100
Heat Index: 30°   Visibility: 0.25mi
Dew Point: 30°   Wind: 7mph
Humidity: 100%   Direction: 60°ENE
Pressure: 30.41"   Gusts: NA
Location:  47.7035°N, 118.192°W
Report Text: KSKA 291758Z 06006KT 1/4SM R05/2200FT FZFG VV001 M01/M01 A3041 RMK AO2A TWR VIS 1/8 SLP325 T10091009 11008 21021 50003
Loading
Personal Weather Stations






























Interactive Weather Map New forecast layout! Learn more

10-Day Weather Forecast

Advertisements
Track Severe Weather on mobile